sensor_id;sensor_type;location;lat;lon;timestamp;P1;durP1;ratioP1;P2;durP2;ratioP2
11197;SDS011;5655;48.744;9.162;2023-03-21T00:00:55;3.25;;;2.13;;
11197;SDS011;5655;48.744;9.162;2023-03-21T00:03:22;4.43;;;2.58;;
11197;SDS011;5655;48.744;9.162;2023-03-21T00:05:48;3.60;;;2.15;;
11197;SDS011;5655;48.744;9.162;2023-03-21T00:08:17;3.35;;;2.33;;
11197;SDS011;5655;48.744;9.162;2023-03-21T00:10:42;5.45;;;2.38;;
11197;SDS011;5655;48.744;9.162;2023-03-21T00:13:08;3.47;;;2.47;;
11197;SDS011;5655;48.744;9.162;2023-03-21T00:15:37;3.38;;;2.67;;
11197;SDS011;5655;48.744;9.162;2023-03-21T00:18:14;3.17;;;2.30;;
11197;SDS011;5655;48.744;9.162;2023-03-21T00:20:41;4.18;;;2.28;;
11197;SDS011;5655;48.744;9.162;2023-03-21T00:23:11;6.57;;;2.42;;
11197;SDS011;5655;48.744;9.162;2023-03-21T00:25:37;2.80;;;2.10;;
11197;SDS011;5655;48.744;9.162;2023-03-21T00:28:02;4.28;;;2.70;;
11197;SDS011;5655;48.744;9.162;2023-03-21T00:30:27;3.00;;;2.50;;
11197;SDS011;5655;48.744;9.162;2023-03-21T00:32:53;4.40;;;2.70;;
11197;SDS011;5655;48.744;9.162;2023-03-21T00:35:18;3.47;;;2.60;;
11197;SDS011;5655;48.744;9.162;2023-03-21T00:37:44;3.25;;;2.40;;
11197;SDS011;5655;48.744;9.162;2023-03-21T00:40:10;4.40;;;2.75;;
11197;SDS011;5655;48.744;9.162;2023-03-21T00:42:36;3.67;;;2.90;;
11197;SDS011;5655;48.744;9.162;2023-03-21T00:45:02;3.25;;;2.58;;
11197;SDS011;5655;48.744;9.162;2023-03-21T00:47:28;4.60;;;2.80;;
11197;SDS011;5655;48.744;9.162;2023-03-21T00:49:54;5.15;;;3.00;;
11197;SDS011;5655;48.744;9.162;2023-03-21T00:52:19;3.00;;;2.70;;
11197;SDS011;5655;48.744;9.162;2023-03-21T00:54:46;3.47;;;2.53;;
11197;SDS011;5655;48.744;9.162;2023-03-21T00:57:11;4.78;;;2.72;;
11197;SDS011;5655;48.744;9.162;2023-03-21T00:59:37;3.28;;;2.47;;
11197;SDS011;5655;48.744;9.162;2023-03-21T01:02:02;3.28;;;2.65;;
11197;SDS011;5655;48.744;9.162;2023-03-21T01:04:31;5.18;;;2.72;;
11197;SDS011;5655;48.744;9.162;2023-03-21T01:06:57;2.85;;;2.55;;
11197;SDS011;5655;48.744;9.162;2023-03-21T01:09:22;5.65;;;2.92;;
11197;SDS011;5655;48.744;9.162;2023-03-21T01:11:49;4.40;;;2.55;;
11197;SDS011;5655;48.744;9.162;2023-03-21T01:14:15;3.78;;;2.70;;
11197;SDS011;5655;48.744;9.162;2023-03-21T01:16:42;3.38;;;2.42;;
11197;SDS011;5655;48.744;9.162;2023-03-21T01:19:09;2.83;;;2.38;;
11197;SDS011;5655;48.744;9.162;2023-03-21T01:21:36;3.45;;;2.22;;
11197;SDS011;5655;48.744;9.162;2023-03-21T01:24:02;3.50;;;2.67;;
11197;SDS011;5655;48.744;9.162;2023-03-21T01:26:28;3.50;;;2.58;;
11197;SDS011;5655;48.744;9.162;2023-03-21T01:28:53;2.85;;;2.38;;
11197;SDS011;5655;48.744;9.162;2023-03-21T01:31:19;2.90;;;2.40;;
11197;SDS011;5655;48.744;9.162;2023-03-21T01:33:44;3.75;;;2.10;;
11197;SDS011;5655;48.744;9.162;2023-03-21T01:36:14;4.03;;;2.40;;
11197;SDS011;5655;48.744;9.162;2023-03-21T01:38:42;3.60;;;2.70;;
11197;SDS011;5655;48.744;9.162;2023-03-21T01:41:09;3.13;;;2.40;;
11197;SDS011;5655;48.744;9.162;2023-03-21T01:44:01;2.80;;;2.53;;
11197;SDS011;5655;48.744;9.162;2023-03-21T01:46:34;3.08;;;2.33;;
11197;SDS011;5655;48.744;9.162;2023-03-21T01:51:51;4.10;;;2.25;;
11197;SDS011;5655;48.744;9.162;2023-03-21T01:54:25;3.35;;;2.40;;
11197;SDS011;5655;48.744;9.162;2023-03-21T01:56:54;2.70;;;2.30;;
11197;SDS011;5655;48.744;9.162;2023-03-21T01:59:23;4.35;;;2.45;;
11197;SDS011;5655;48.744;9.162;2023-03-21T02:02:04;3.03;;;2.20;;
11197;SDS011;5655;48.744;9.162;2023-03-21T02:04:34;4.70;;;2.17;;
11197;SDS011;5655;48.744;9.162;2023-03-21T02:07:14;4.90;;;2.50;;
11197;SDS011;5655;48.744;9.162;2023-03-21T02:09:47;3.15;;;2.45;;
11197;SDS011;5655;48.744;9.162;2023-03-21T02:12:14;3.88;;;2.72;;
11197;SDS011;5655;48.744;9.162;2023-03-21T02:14:40;3.47;;;2.67;;
11197;SDS011;5655;48.744;9.162;2023-03-21T02:17:22;3.58;;;2.88;;
11197;SDS011;5655;48.744;9.162;2023-03-21T02:38:46;4.50;;;2.60;;
11197;SDS011;5655;48.744;9.162;2023-03-21T02:46:29;3.42;;;2.83;;
11197;SDS011;5655;48.744;9.162;2023-03-21T02:51:36;3.83;;;3.20;;
11197;SDS011;5655;48.744;9.162;2023-03-21T02:54:08;4.07;;;2.83;;
11197;SDS011;5655;48.744;9.162;2023-03-21T02:56:40;7.28;;;3.17;;
11197;SDS011;5655;48.744;9.162;2023-03-21T02:59:07;5.03;;;2.88;;
11197;SDS011;5655;48.744;9.162;2023-03-21T03:01:33;6.10;;;2.92;;
11197;SDS011;5655;48.744;9.162;2023-03-21T03:03:59;5.68;;;3.47;;
11197;SDS011;5655;48.744;9.162;2023-03-21T03:06:36;5.95;;;2.97;;
11197;SDS011;5655;48.744;9.162;2023-03-21T03:12:56;3.97;;;3.03;;
11197;SDS011;5655;48.744;9.162;2023-03-21T03:15:27;3.15;;;2.83;;
11197;SDS011;5655;48.744;9.162;2023-03-21T03:20:44;6.25;;;3.05;;
11197;SDS011;5655;48.744;9.162;2023-03-21T03:25:52;3.47;;;3.00;;
11197;SDS011;5655;48.744;9.162;2023-03-21T03:28:22;3.63;;;2.95;;
11197;SDS011;5655;48.744;9.162;2023-03-21T03:30:52;3.00;;;2.70;;
11197;SDS011;5655;48.744;9.162;2023-03-21T03:33:20;4.18;;;3.40;;
11197;SDS011;5655;48.744;9.162;2023-03-21T03:35:47;4.10;;;3.03;;
11197;SDS011;5655;48.744;9.162;2023-03-21T03:38:14;4.22;;;3.03;;
11197;SDS011;5655;48.744;9.162;2023-03-21T03:40:45;4.28;;;3.70;;
11197;SDS011;5655;48.744;9.162;2023-03-21T03:43:17;5.00;;;3.10;;
11197;SDS011;5655;48.744;9.162;2023-03-21T03:45:54;4.55;;;2.78;;
11197;SDS011;5655;48.744;9.162;2023-03-21T03:48:25;5.53;;;2.80;;
11197;SDS011;5655;48.744;9.162;2023-03-21T03:51:06;3.50;;;2.70;;
11197;SDS011;5655;48.744;9.162;2023-03-21T03:53:40;6.50;;;3.00;;
11197;SDS011;5655;48.744;9.162;2023-03-21T03:56:10;2.88;;;2.45;;
11197;SDS011;5655;48.744;9.162;2023-03-21T03:58:37;3.72;;;3.00;;
11197;SDS011;5655;48.744;9.162;2023-03-21T04:01:04;5.00;;;2.83;;
11197;SDS011;5655;48.744;9.162;2023-03-21T04:03:31;4.75;;;3.08;;
11197;SDS011;5655;48.744;9.162;2023-03-21T04:05:58;4.07;;;3.13;;
11197;SDS011;5655;48.744;9.162;2023-03-21T04:08:24;3.90;;;2.92;;
11197;SDS011;5655;48.744;9.162;2023-03-21T04:10:49;3.90;;;3.00;;
11197;SDS011;5655;48.744;9.162;2023-03-21T04:13:15;4.50;;;3.15;;
11197;SDS011;5655;48.744;9.162;2023-03-21T04:15:40;3.25;;;2.88;;
11197;SDS011;5655;48.744;9.162;2023-03-21T04:18:05;4.28;;;2.92;;
11197;SDS011;5655;48.744;9.162;2023-03-21T04:20:31;3.28;;;2.95;;
11197;SDS011;5655;48.744;9.162;2023-03-21T04:22:56;3.30;;;2.75;;
11197;SDS011;5655;48.744;9.162;2023-03-21T04:25:22;3.33;;;2.95;;
11197;SDS011;5655;48.744;9.162;2023-03-21T04:27:48;4.85;;;3.15;;
11197;SDS011;5655;48.744;9.162;2023-03-21T04:30:13;4.13;;;3.15;;
11197;SDS011;5655;48.744;9.162;2023-03-21T04:32:39;4.18;;;3.28;;
11197;SDS011;5655;48.744;9.162;2023-03-21T04:35:05;3.58;;;3.00;;
11197;SDS011;5655;48.744;9.162;2023-03-21T04:37:32;4.97;;;2.70;;
11197;SDS011;5655;48.744;9.162;2023-03-21T04:39:58;4.38;;;2.97;;
11197;SDS011;5655;48.744;9.162;2023-03-21T04:42:24;4.03;;;3.13;;
11197;SDS011;5655;48.744;9.162;2023-03-21T04:44:49;4.00;;;3.13;;
11197;SDS011;5655;48.744;9.162;2023-03-21T04:47:15;3.90;;;2.85;;
11197;SDS011;5655;48.744;9.162;2023-03-21T04:49:44;3.22;;;2.88;;
11197;SDS011;5655;48.744;9.162;2023-03-21T04:52:09;5.47;;;3.13;;
11197;SDS011;5655;48.744;9.162;2023-03-21T04:54:35;3.85;;;3.33;;
11197;SDS011;5655;48.744;9.162;2023-03-21T04:57:00;3.15;;;2.85;;
11197;SDS011;5655;48.744;9.162;2023-03-21T04:59:26;4.25;;;3.45;;
11197;SDS011;5655;48.744;9.162;2023-03-21T05:01:51;5.20;;;3.30;;
11197;SDS011;5655;48.744;9.162;2023-03-21T05:04:16;4.43;;;3.08;;
11197;SDS011;5655;48.744;9.162;2023-03-21T05:06:42;4.28;;;3.03;;
11197;SDS011;5655;48.744;9.162;2023-03-21T05:09:09;4.40;;;3.33;;
11197;SDS011;5655;48.744;9.162;2023-03-21T05:11:35;3.97;;;2.97;;
11197;SDS011;5655;48.744;9.162;2023-03-21T05:14:02;4.13;;;3.10;;
11197;SDS011;5655;48.744;9.162;2023-03-21T05:16:29;3.92;;;3.15;;
11197;SDS011;5655;48.744;9.162;2023-03-21T05:18:55;3.72;;;3.13;;
11197;SDS011;5655;48.744;9.162;2023-03-21T05:21:28;3.65;;;3.08;;
11197;SDS011;5655;48.744;9.162;2023-03-21T05:23:58;3.67;;;3.20;;
11197;SDS011;5655;48.744;9.162;2023-03-21T05:26:27;4.25;;;3.15;;
11197;SDS011;5655;48.744;9.162;2023-03-21T05:28:53;4.38;;;3.00;;
11197;SDS011;5655;48.744;9.162;2023-03-21T05:31:19;4.60;;;3.40;;
11197;SDS011;5655;48.744;9.162;2023-03-21T05:33:45;3.58;;;2.85;;
11197;SDS011;5655;48.744;9.162;2023-03-21T05:36:11;4.60;;;3.20;;
11197;SDS011;5655;48.744;9.162;2023-03-21T05:38:37;5.18;;;3.25;;
11197;SDS011;5655;48.744;9.162;2023-03-21T05:41:06;3.72;;;2.97;;
11197;SDS011;5655;48.744;9.162;2023-03-21T05:43:32;4.53;;;3.38;;
11197;SDS011;5655;48.744;9.162;2023-03-21T05:45:57;5.78;;;3.50;;
11197;SDS011;5655;48.744;9.162;2023-03-21T05:48:23;6.38;;;3.40;;
11197;SDS011;5655;48.744;9.162;2023-03-21T05:50:48;4.28;;;3.17;;
11197;SDS011;5655;48.744;9.162;2023-03-21T05:53:13;4.30;;;3.38;;
11197;SDS011;5655;48.744;9.162;2023-03-21T05:55:39;4.22;;;3.15;;
11197;SDS011;5655;48.744;9.162;2023-03-21T05:58:04;4.78;;;3.50;;
11197;SDS011;5655;48.744;9.162;2023-03-21T06:00:29;3.28;;;2.97;;
11197;SDS011;5655;48.744;9.162;2023-03-21T06:02:55;4.15;;;3.08;;
11197;SDS011;5655;48.744;9.162;2023-03-21T06:05:20;4.65;;;3.00;;
11197;SDS011;5655;48.744;9.162;2023-03-21T06:07:46;4.40;;;3.00;;
11197;SDS011;5655;48.744;9.162;2023-03-21T06:10:11;3.58;;;3.28;;
11197;SDS011;5655;48.744;9.162;2023-03-21T06:12:37;4.57;;;3.47;;
11197;SDS011;5655;48.744;9.162;2023-03-21T06:15:03;7.50;;;3.47;;
11197;SDS011;5655;48.744;9.162;2023-03-21T06:17:30;4.43;;;3.22;;
11197;SDS011;5655;48.744;9.162;2023-03-21T06:19:56;5.88;;;3.60;;
11197;SDS011;5655;48.744;9.162;2023-03-21T06:22:22;5.30;;;3.33;;
11197;SDS011;5655;48.744;9.162;2023-03-21T06:24:47;4.85;;;3.10;;
11197;SDS011;5655;48.744;9.162;2023-03-21T06:27:13;6.10;;;3.60;;
11197;SDS011;5655;48.744;9.162;2023-03-21T06:29:38;4.95;;;2.90;;
11197;SDS011;5655;48.744;9.162;2023-03-21T06:32:03;7.88;;;3.80;;
11197;SDS011;5655;48.744;9.162;2023-03-21T06:34:31;6.25;;;3.40;;
11197;SDS011;5655;48.744;9.162;2023-03-21T06:36:56;8.40;;;4.65;;
11197;SDS011;5655;48.744;9.162;2023-03-21T06:39:22;6.57;;;3.30;;
11197;SDS011;5655;48.744;9.162;2023-03-21T06:41:47;5.18;;;3.58;;
11197;SDS011;5655;48.744;9.162;2023-03-21T06:44:13;5.75;;;3.90;;
11197;SDS011;5655;48.744;9.162;2023-03-21T06:46:38;4.05;;;3.20;;
11197;SDS011;5655;48.744;9.162;2023-03-21T06:49:04;5.60;;;3.83;;
11197;SDS011;5655;48.744;9.162;2023-03-21T06:51:29;6.15;;;3.72;;
11197;SDS011;5655;48.744;9.162;2023-03-21T06:53:54;6.88;;;3.78;;
11197;SDS011;5655;48.744;9.162;2023-03-21T06:56:20;5.60;;;3.53;;
11197;SDS011;5655;48.744;9.162;2023-03-21T06:58:45;4.22;;;3.70;;
11197;SDS011;5655;48.744;9.162;2023-03-21T07:01:11;5.45;;;3.70;;
11197;SDS011;5655;48.744;9.162;2023-03-21T07:03:38;5.22;;;3.35;;
11197;SDS011;5655;48.744;9.162;2023-03-21T07:06:05;4.93;;;3.22;;
11197;SDS011;5655;48.744;9.162;2023-03-21T07:08:32;6.68;;;3.13;;
11197;SDS011;5655;48.744;9.162;2023-03-21T07:10:58;3.78;;;3.05;;
11197;SDS011;5655;48.744;9.162;2023-03-21T07:13:23;5.20;;;2.88;;
11197;SDS011;5655;48.744;9.162;2023-03-21T07:15:48;6.22;;;3.33;;
11197;SDS011;5655;48.744;9.162;2023-03-21T07:18:14;6.80;;;3.90;;
11197;SDS011;5655;48.744;9.162;2023-03-21T07:20:44;3.60;;;2.85;;
11197;SDS011;5655;48.744;9.162;2023-03-21T07:23:12;3.90;;;3.03;;
11197;SDS011;5655;48.744;9.162;2023-03-21T07:25:37;5.15;;;2.70;;
11197;SDS011;5655;48.744;9.162;2023-03-21T07:28:03;7.70;;;3.10;;
11197;SDS011;5655;48.744;9.162;2023-03-21T07:30:33;4.70;;;2.40;;
11197;SDS011;5655;48.744;9.162;2023-03-21T07:32:59;7.20;;;3.05;;
11197;SDS011;5655;48.744;9.162;2023-03-21T07:35:24;5.22;;;3.05;;
11197;SDS011;5655;48.744;9.162;2023-03-21T07:37:49;3.38;;;2.97;;
11197;SDS011;5655;48.744;9.162;2023-03-21T07:40:15;6.00;;;3.13;;
11197;SDS011;5655;48.744;9.162;2023-03-21T07:42:41;6.60;;;3.20;;
11197;SDS011;5655;48.744;9.162;2023-03-21T07:45:07;7.68;;;3.22;;
11197;SDS011;5655;48.744;9.162;2023-03-21T07:47:34;8.35;;;3.35;;
11197;SDS011;5655;48.744;9.162;2023-03-21T07:49:59;4.63;;;2.90;;
11197;SDS011;5655;48.744;9.162;2023-03-21T07:52:25;6.75;;;3.20;;
11197;SDS011;5655;48.744;9.162;2023-03-21T07:54:51;3.08;;;2.67;;
11197;SDS011;5655;48.744;9.162;2023-03-21T07:57:16;2.67;;;2.35;;
11197;SDS011;5655;48.744;9.162;2023-03-21T07:59:42;4.72;;;2.70;;
11197;SDS011;5655;48.744;9.162;2023-03-21T08:02:14;4.13;;;2.67;;
11197;SDS011;5655;48.744;9.162;2023-03-21T08:04:41;5.15;;;2.90;;
11197;SDS011;5655;48.744;9.162;2023-03-21T08:07:07;5.32;;;3.03;;
11197;SDS011;5655;48.744;9.162;2023-03-21T08:09:33;3.15;;;2.50;;
11197;SDS011;5655;48.744;9.162;2023-03-21T08:11:58;9.15;;;3.75;;
11197;SDS011;5655;48.744;9.162;2023-03-21T08:14:23;4.25;;;2.55;;
11197;SDS011;5655;48.744;9.162;2023-03-21T08:16:49;4.22;;;2.17;;
11197;SDS011;5655;48.744;9.162;2023-03-21T08:19:14;3.90;;;2.20;;
11197;SDS011;5655;48.744;9.162;2023-03-21T08:21:40;5.25;;;2.25;;
11197;SDS011;5655;48.744;9.162;2023-03-21T08:24:05;2.97;;;2.25;;
11197;SDS011;5655;48.744;9.162;2023-03-21T08:26:31;2.53;;;2.00;;
11197;SDS011;5655;48.744;9.162;2023-03-21T08:28:57;2.55;;;2.20;;
11197;SDS011;5655;48.744;9.162;2023-03-21T08:31:23;2.80;;;1.85;;
11197;SDS011;5655;48.744;9.162;2023-03-21T08:33:48;2.80;;;1.80;;
11197;SDS011;5655;48.744;9.162;2023-03-21T08:36:18;2.78;;;2.05;;
11197;SDS011;5655;48.744;9.162;2023-03-21T08:38:45;3.58;;;2.30;;
11197;SDS011;5655;48.744;9.162;2023-03-21T08:41:12;24.10;;;5.78;;
11197;SDS011;5655;48.744;9.162;2023-03-21T08:43:38;6.10;;;2.50;;
11197;SDS011;5655;48.744;9.162;2023-03-21T08:46:03;3.40;;;1.73;;
11197;SDS011;5655;48.744;9.162;2023-03-21T08:48:29;4.75;;;1.95;;
11197;SDS011;5655;48.744;9.162;2023-03-21T08:50:54;3.05;;;1.70;;
11197;SDS011;5655;48.744;9.162;2023-03-21T08:53:19;3.55;;;1.80;;
11197;SDS011;5655;48.744;9.162;2023-03-21T08:55:45;5.95;;;1.98;;
11197;SDS011;5655;48.744;9.162;2023-03-21T08:58:10;3.88;;;2.03;;
11197;SDS011;5655;48.744;9.162;2023-03-21T09:00:36;4.15;;;1.80;;
11197;SDS011;5655;48.744;9.162;2023-03-21T09:03:01;3.40;;;1.70;;
11197;SDS011;5655;48.744;9.162;2023-03-21T09:05:28;2.92;;;1.92;;
11197;SDS011;5655;48.744;9.162;2023-03-21T09:07:54;4.82;;;1.73;;
11197;SDS011;5655;48.744;9.162;2023-03-21T09:10:20;3.03;;;1.80;;
11197;SDS011;5655;48.744;9.162;2023-03-21T09:12:47;3.25;;;1.70;;
11197;SDS011;5655;48.744;9.162;2023-03-21T09:15:14;2.38;;;1.30;;
11197;SDS011;5655;48.744;9.162;2023-03-21T09:17:40;2.72;;;1.60;;
11197;SDS011;5655;48.744;9.162;2023-03-21T09:20:12;2.03;;;1.52;;
11197;SDS011;5655;48.744;9.162;2023-03-21T09:22:46;1.70;;;1.17;;
11197;SDS011;5655;48.744;9.162;2023-03-21T09:25:13;2.03;;;1.17;;
11197;SDS011;5655;48.744;9.162;2023-03-21T09:27:40;2.17;;;1.58;;
11197;SDS011;5655;48.744;9.162;2023-03-21T09:30:07;2.50;;;1.48;;
11197;SDS011;5655;48.744;9.162;2023-03-21T09:32:34;3.55;;;1.20;;
11197;SDS011;5655;48.744;9.162;2023-03-21T09:35:00;1.83;;;1.42;;
11197;SDS011;5655;48.744;9.162;2023-03-21T09:37:26;2.70;;;1.33;;
11197;SDS011;5655;48.744;9.162;2023-03-21T09:39:51;2.05;;;1.40;;
11197;SDS011;5655;48.744;9.162;2023-03-21T09:45:10;3.20;;;1.48;;
11197;SDS011;5655;48.744;9.162;2023-03-21T09:47:44;3.15;;;1.63;;
11197;SDS011;5655;48.744;9.162;2023-03-21T09:50:32;2.67;;;1.40;;
11197;SDS011;5655;48.744;9.162;2023-03-21T09:55:47;2.65;;;1.77;;
11197;SDS011;5655;48.744;9.162;2023-03-21T09:58:27;3.03;;;1.33;;
11197;SDS011;5655;48.744;9.162;2023-03-21T10:01:16;3.53;;;1.50;;
11197;SDS011;5655;48.744;9.162;2023-03-21T10:03:51;4.45;;;1.60;;
11197;SDS011;5655;48.744;9.162;2023-03-21T10:06:18;2.85;;;1.60;;
11197;SDS011;5655;48.744;9.162;2023-03-21T10:08:46;2.15;;;1.45;;
11197;SDS011;5655;48.744;9.162;2023-03-21T10:11:17;4.25;;;1.63;;
11197;SDS011;5655;48.744;9.162;2023-03-21T10:18:53;2.92;;;1.70;;
11197;SDS011;5655;48.744;9.162;2023-03-21T10:21:24;4.65;;;1.55;;
11197;SDS011;5655;48.744;9.162;2023-03-21T10:23:52;2.53;;;1.38;;
11197;SDS011;5655;48.744;9.162;2023-03-21T10:26:20;2.22;;;1.55;;
11197;SDS011;5655;48.744;9.162;2023-03-21T10:28:47;3.28;;;1.52;;
11197;SDS011;5655;48.744;9.162;2023-03-21T10:31:14;4.78;;;1.50;;
11197;SDS011;5655;48.744;9.162;2023-03-21T10:33:43;2.60;;;1.55;;
11197;SDS011;5655;48.744;9.162;2023-03-21T10:36:12;1.88;;;1.30;;
11197;SDS011;5655;48.744;9.162;2023-03-21T10:41:28;3.42;;;1.58;;
11197;SDS011;5655;48.744;9.162;2023-03-21T10:44:11;2.10;;;1.42;;
11197;SDS011;5655;48.744;9.162;2023-03-21T10:46:38;1.75;;;1.10;;
11197;SDS011;5655;48.744;9.162;2023-03-21T10:49:15;1.27;;;1.02;;
11197;SDS011;5655;48.744;9.162;2023-03-21T10:51:40;2.85;;;1.02;;
11197;SDS011;5655;48.744;9.162;2023-03-21T10:54:07;1.05;;;0.95;;
11197;SDS011;5655;48.744;9.162;2023-03-21T10:56:39;2.05;;;1.80;;
11197;SDS011;5655;48.744;9.162;2023-03-21T10:59:25;4.90;;;1.00;;
11197;SDS011;5655;48.744;9.162;2023-03-21T11:01:59;1.15;;;1.00;;
11197;SDS011;5655;48.744;9.162;2023-03-21T11:04:28;3.53;;;1.25;;
11197;SDS011;5655;48.744;9.162;2023-03-21T11:06:57;3.88;;;1.15;;
11197;SDS011;5655;48.744;9.162;2023-03-21T11:09:42;3.30;;;1.10;;
11197;SDS011;5655;48.744;9.162;2023-03-21T11:12:13;3.75;;;0.98;;
11197;SDS011;5655;48.744;9.162;2023-03-21T11:19:45;1.30;;;1.08;;
11197;SDS011;5655;48.744;9.162;2023-03-21T11:22:13;2.03;;;1.10;;
11197;SDS011;5655;48.744;9.162;2023-03-21T11:24:39;1.27;;;0.80;;
11197;SDS011;5655;48.744;9.162;2023-03-21T11:27:08;1.15;;;0.63;;
11197;SDS011;5655;48.744;9.162;2023-03-21T11:29:36;1.38;;;0.93;;
11197;SDS011;5655;48.744;9.162;2023-03-21T11:32:09;1.25;;;1.00;;
11197;SDS011;5655;48.744;9.162;2023-03-21T11:34:44;1.23;;;0.90;;
11197;SDS011;5655;48.744;9.162;2023-03-21T11:37:54;1.70;;;0.80;;
11197;SDS011;5655;48.744;9.162;2023-03-21T11:40:34;2.95;;;1.10;;
11197;SDS011;5655;48.744;9.162;2023-03-21T11:43:00;1.70;;;0.90;;
11197;SDS011;5655;48.744;9.162;2023-03-21T11:48:29;1.40;;;0.75;;
11197;SDS011;5655;48.744;9.162;2023-03-21T11:51:03;2.00;;;1.02;;
11197;SDS011;5655;48.744;9.162;2023-03-21T11:53:43;1.05;;;0.80;;
11197;SDS011;5655;48.744;9.162;2023-03-21T12:15:47;1.38;;;1.23;;
11197;SDS011;5655;48.744;9.162;2023-03-21T12:18:36;2.53;;;1.40;;
11197;SDS011;5655;48.744;9.162;2023-03-21T12:21:10;6.32;;;1.10;;
11197;SDS011;5655;48.744;9.162;2023-03-21T12:24:01;2.22;;;1.10;;
11197;SDS011;5655;48.744;9.162;2023-03-21T12:26:31;1.08;;;0.98;;
11197;SDS011;5655;48.744;9.162;2023-03-21T12:32:04;1.10;;;1.00;;
11197;SDS011;5655;48.744;9.162;2023-03-21T12:40:21;1.73;;;1.00;;
11197;SDS011;5655;48.744;9.162;2023-03-21T12:43:29;1.02;;;0.70;;
11197;SDS011;5655;48.744;9.162;2023-03-21T12:46:05;1.48;;;1.27;;
11197;SDS011;5655;48.744;9.162;2023-03-21T12:48:57;1.52;;;1.38;;
11197;SDS011;5655;48.744;9.162;2023-03-21T12:51:36;14.40;;;2.70;;
11197;SDS011;5655;48.744;9.162;2023-03-21T12:56:56;2.38;;;1.20;;
11197;SDS011;5655;48.744;9.162;2023-03-21T13:02:09;1.85;;;1.10;;
11197;SDS011;5655;48.744;9.162;2023-03-21T13:07:46;1.27;;;1.13;;
11197;SDS011;5655;48.744;9.162;2023-03-21T13:10:17;3.03;;;1.38;;
11197;SDS011;5655;48.744;9.162;2023-03-21T13:13:02;5.18;;;1.45;;
11197;SDS011;5655;48.744;9.162;2023-03-21T13:18:11;1.25;;;1.15;;
11197;SDS011;5655;48.744;9.162;2023-03-21T13:23:38;2.72;;;1.48;;
11197;SDS011;5655;48.744;9.162;2023-03-21T13:26:10;1.30;;;1.15;;
11197;SDS011;5655;48.744;9.162;2023-03-21T13:28:37;2.28;;;1.10;;
11197;SDS011;5655;48.744;9.162;2023-03-21T13:31:17;2.30;;;1.27;;
11197;SDS011;5655;48.744;9.162;2023-03-21T13:33:49;1.20;;;1.10;;
11197;SDS011;5655;48.744;9.162;2023-03-21T13:36:50;2.85;;;1.30;;
11197;SDS011;5655;48.744;9.162;2023-03-21T13:39:13;3.42;;;1.00;;
11197;SDS011;5655;48.744;9.162;2023-03-21T13:41:42;1.08;;;0.88;;
11197;SDS011;5655;48.744;9.162;2023-03-21T13:53:08;2.55;;;0.70;;
11197;SDS011;5655;48.744;9.162;2023-03-21T13:55:39;1.70;;;1.00;;
11197;SDS011;5655;48.744;9.162;2023-03-21T13:58:23;2.03;;;1.10;;
11197;SDS011;5655;48.744;9.162;2023-03-21T14:01:08;1.50;;;0.70;;
11197;SDS011;5655;48.744;9.162;2023-03-21T14:04:36;2.70;;;0.80;;
11197;SDS011;5655;48.744;9.162;2023-03-21T14:06:45;0.93;;;0.77;;
11197;SDS011;5655;48.744;9.162;2023-03-21T14:09:17;1.27;;;0.88;;
11197;SDS011;5655;48.744;9.162;2023-03-21T14:11:47;1.25;;;0.82;;
11197;SDS011;5655;48.744;9.162;2023-03-21T14:14:15;1.65;;;0.73;;
11197;SDS011;5655;48.744;9.162;2023-03-21T14:16:41;1.38;;;0.70;;
11197;SDS011;5655;48.744;9.162;2023-03-21T14:19:09;3.20;;;0.88;;
11197;SDS011;5655;48.744;9.162;2023-03-21T14:21:35;1.65;;;0.80;;
11197;SDS011;5655;48.744;9.162;2023-03-21T14:24:05;2.72;;;0.50;;
11197;SDS011;5655;48.744;9.162;2023-03-21T14:26:33;1.50;;;0.70;;
11197;SDS011;5655;48.744;9.162;2023-03-21T14:29:02;1.20;;;0.82;;
11197;SDS011;5655;48.744;9.162;2023-03-21T14:31:30;1.60;;;1.10;;
11197;SDS011;5655;48.744;9.162;2023-03-21T14:33:56;1.75;;;0.90;;
11197;SDS011;5655;48.744;9.162;2023-03-21T14:36:25;1.15;;;1.05;;
11197;SDS011;5655;48.744;9.162;2023-03-21T14:38:58;1.05;;;0.90;;
11197;SDS011;5655;48.744;9.162;2023-03-21T14:41:42;3.22;;;1.30;;
11197;SDS011;5655;48.744;9.162;2023-03-21T14:46:41;7.22;;;2.08;;
11197;SDS011;5655;48.744;9.162;2023-03-21T14:49:40;3.70;;;2.20;;
11197;SDS011;5655;48.744;9.162;2023-03-21T14:52:01;6.85;;;2.60;;
11197;SDS011;5655;48.744;9.162;2023-03-21T14:54:29;5.05;;;2.00;;
11197;SDS011;5655;48.744;9.162;2023-03-21T14:57:01;2.45;;;1.90;;
11197;SDS011;5655;48.744;9.162;2023-03-21T14:59:33;5.80;;;2.28;;
11197;SDS011;5655;48.744;9.162;2023-03-21T15:02:02;5.47;;;2.20;;
11197;SDS011;5655;48.744;9.162;2023-03-21T15:04:36;3.00;;;2.33;;
11197;SDS011;5655;48.744;9.162;2023-03-21T15:07:02;5.75;;;2.42;;
11197;SDS011;5655;48.744;9.162;2023-03-21T15:09:30;6.63;;;2.22;;
11197;SDS011;5655;48.744;9.162;2023-03-21T15:11:58;7.30;;;2.42;;
11197;SDS011;5655;48.744;9.162;2023-03-21T15:14:25;5.88;;;2.45;;
11197;SDS011;5655;48.744;9.162;2023-03-21T15:16:54;4.03;;;1.90;;
11197;SDS011;5655;48.744;9.162;2023-03-21T15:19:22;4.80;;;2.30;;
11197;SDS011;5655;48.744;9.162;2023-03-21T15:21:53;5.78;;;2.95;;
11197;SDS011;5655;48.744;9.162;2023-03-21T15:24:28;5.22;;;2.60;;
11197;SDS011;5655;48.744;9.162;2023-03-21T15:27:01;7.60;;;2.58;;
11197;SDS011;5655;48.744;9.162;2023-03-21T15:29:29;5.10;;;2.88;;
11197;SDS011;5655;48.744;9.162;2023-03-21T15:31:56;7.20;;;2.70;;
11197;SDS011;5655;48.744;9.162;2023-03-21T15:34:23;6.20;;;2.72;;
11197;SDS011;5655;48.744;9.162;2023-03-21T15:37:06;10.07;;;3.00;;
11197;SDS011;5655;48.744;9.162;2023-03-21T15:39:37;6.07;;;2.28;;
11197;SDS011;5655;48.744;9.162;2023-03-21T15:44:48;6.00;;;2.30;;
11197;SDS011;5655;48.744;9.162;2023-03-21T15:47:34;3.90;;;2.20;;
11197;SDS011;5655;48.744;9.162;2023-03-21T15:50:28;3.22;;;2.00;;
11197;SDS011;5655;48.744;9.162;2023-03-21T15:52:59;3.60;;;1.88;;
11197;SDS011;5655;48.744;9.162;2023-03-21T15:55:27;4.72;;;2.05;;
11197;SDS011;5655;48.744;9.162;2023-03-21T15:58:02;10.10;;;2.65;;
11197;SDS011;5655;48.744;9.162;2023-03-21T16:00:33;6.03;;;2.10;;
11197;SDS011;5655;48.744;9.162;2023-03-21T16:03:01;4.03;;;2.40;;
11197;SDS011;5655;48.744;9.162;2023-03-21T16:05:31;4.43;;;2.50;;
11197;SDS011;5655;48.744;9.162;2023-03-21T16:08:01;3.38;;;2.15;;
11197;SDS011;5655;48.744;9.162;2023-03-21T16:10:30;4.40;;;2.60;;
11197;SDS011;5655;48.744;9.162;2023-03-21T16:12:58;5.68;;;2.92;;
11197;SDS011;5655;48.744;9.162;2023-03-21T16:15:25;7.97;;;2.92;;
11197;SDS011;5655;48.744;9.162;2023-03-21T16:17:55;4.97;;;2.28;;
11197;SDS011;5655;48.744;9.162;2023-03-21T16:20:26;3.72;;;2.35;;
11197;SDS011;5655;48.744;9.162;2023-03-21T16:22:56;7.53;;;2.28;;
11197;SDS011;5655;48.744;9.162;2023-03-21T16:25:22;4.70;;;2.65;;
11197;SDS011;5655;48.744;9.162;2023-03-21T16:27:47;4.97;;;2.90;;
11197;SDS011;5655;48.744;9.162;2023-03-21T16:30:14;4.05;;;2.60;;
11197;SDS011;5655;48.744;9.162;2023-03-21T16:32:42;7.70;;;2.80;;
11197;SDS011;5655;48.744;9.162;2023-03-21T16:35:07;4.40;;;2.47;;
11197;SDS011;5655;48.744;9.162;2023-03-21T16:37:33;6.78;;;2.67;;
11197;SDS011;5655;48.744;9.162;2023-03-21T16:39:58;6.97;;;2.70;;
11197;SDS011;5655;48.744;9.162;2023-03-21T16:42:24;3.65;;;2.35;;
11197;SDS011;5655;48.744;9.162;2023-03-21T16:44:49;6.07;;;2.80;;
11197;SDS011;5655;48.744;9.162;2023-03-21T16:47:15;5.82;;;2.55;;
11197;SDS011;5655;48.744;9.162;2023-03-21T16:49:47;6.07;;;2.83;;
11197;SDS011;5655;48.744;9.162;2023-03-21T16:52:12;5.05;;;2.60;;
11197;SDS011;5655;48.744;9.162;2023-03-21T16:54:38;4.47;;;2.88;;
11197;SDS011;5655;48.744;9.162;2023-03-21T16:57:05;5.85;;;2.78;;
11197;SDS011;5655;48.744;9.162;2023-03-21T16:59:33;10.45;;;3.63;;
11197;SDS011;5655;48.744;9.162;2023-03-21T17:02:00;4.43;;;2.47;;
11197;SDS011;5655;48.744;9.162;2023-03-21T17:04:25;6.00;;;2.80;;
11197;SDS011;5655;48.744;9.162;2023-03-21T17:06:51;5.70;;;2.70;;
11197;SDS011;5655;48.744;9.162;2023-03-21T17:09:22;12.57;;;3.70;;